sensor_id;sensor_type;location;lat;lon;timestamp;pressure;altitude;pressure_sealevel;temperature;humidity
19096;BME280;9680;52.520;13.332;2023-04-24T00:01:32;100042.31;;;12.96;70.42
19096;BME280;9680;52.520;13.332;2023-04-24T00:04:00;100042.47;;;12.93;70.92
19096;BME280;9680;52.520;13.332;2023-04-24T00:06:29;100031.25;;;12.91;70.66
19096;BME280;9680;52.520;13.332;2023-04-24T00:08:58;100035.72;;;12.89;70.98
19096;BME280;9680;52.520;13.332;2023-04-24T00:11:25;100031.44;;;12.88;71.40
19096;BME280;9680;52.520;13.332;2023-04-24T00:13:52;100029.75;;;12.87;71.65
19096;BME280;9680;52.520;13.332;2023-04-24T00:16:19;100029.94;;;12.84;71.55
19096;BME280;9680;52.520;13.332;2023-04-24T00:18:45;100024.81;;;12.82;71.80
19096;BME280;9680;52.520;13.332;2023-04-24T00:21:14;100021.44;;;12.80;72.05
19096;BME280;9680;52.520;13.332;2023-04-24T00:23:43;100018.25;;;12.75;72.24
19096;BME280;9680;52.520;13.332;2023-04-24T00:26:09;100012.28;;;12.73;72.21
19096;BME280;9680;52.520;13.332;2023-04-24T00:28:36;100012.47;;;12.70;72.33
19096;BME280;9680;52.520;13.332;2023-04-24T00:31:03;100006.50;;;12.67;72.84
19096;BME280;9680;52.520;13.332;2023-04-24T00:33:30;100002.09;;;12.68;73.11
19096;BME280;9680;52.520;13.332;2023-04-24T00:35:57;100004.69;;;12.68;73.04
19096;BME280;9680;52.520;13.332;2023-04-24T00:38:25;99993.44;;;12.67;73.20
19096;BME280;9680;52.520;13.332;2023-04-24T00:40:52;99994.19;;;12.70;72.95
19096;BME280;9680;52.520;13.332;2023-04-24T00:43:20;99986.41;;;12.68;73.11
19096;BME280;9680;52.520;13.332;2023-04-24T00:45:47;99985.59;;;12.67;73.52
19096;BME280;9680;52.520;13.332;2023-04-24T00:48:14;99982.31;;;12.64;73.75
19096;BME280;9680;52.520;13.332;2023-04-24T00:50:41;99973.72;;;12.62;73.92
19096;BME280;9680;52.520;13.332;2023-04-24T00:53:08;99968.31;;;12.65;74.15
19096;BME280;9680;52.520;13.332;2023-04-24T00:55:37;99971.78;;;12.65;74.16
19096;BME280;9680;52.520;13.332;2023-04-24T00:58:04;99970.56;;;12.71;74.31
19096;BME280;9680;52.520;13.332;2023-04-24T01:00:31;99966.94;;;12.74;74.33
19096;BME280;9680;52.520;13.332;2023-04-24T01:02:59;99962.34;;;12.77;74.32
19096;BME280;9680;52.520;13.332;2023-04-24T01:05:28;99967.50;;;12.79;73.85
19096;BME280;9680;52.520;13.332;2023-04-24T01:07:55;99975.41;;;12.77;74.06
19096;BME280;9680;52.520;13.332;2023-04-24T01:10:24;99977.75;;;12.82;74.31
19096;BME280;9680;52.520;13.332;2023-04-24T01:12:53;99976.34;;;12.91;74.79
19096;BME280;9680;52.520;13.332;2023-04-24T01:15:20;99979.44;;;12.98;74.13
19096;BME280;9680;52.520;13.332;2023-04-24T01:17:46;99973.97;;;13.02;74.17
19096;BME280;9680;52.520;13.332;2023-04-24T01:20:13;99975.53;;;13.05;73.64
19096;BME280;9680;52.520;13.332;2023-04-24T01:22:42;99975.53;;;13.05;74.02
19096;BME280;9680;52.520;13.332;2023-04-24T01:25:09;99973.66;;;13.07;73.90
19096;BME280;9680;52.520;13.332;2023-04-24T01:27:36;99975.34;;;13.08;73.80
19096;BME280;9680;52.520;13.332;2023-04-24T01:30:05;99970.03;;;13.09;73.91
19096;BME280;9680;52.520;13.332;2023-04-24T01:32:33;99968.06;;;13.13;73.74
19096;BME280;9680;52.520;13.332;2023-04-24T01:35:00;99968.81;;;13.15;73.96
19096;BME280;9680;52.520;13.332;2023-04-24T01:37:26;99964.25;;;13.19;73.84
19096;BME280;9680;52.520;13.332;2023-04-24T01:39:54;99960.69;;;13.20;73.74
19096;BME280;9680;52.520;13.332;2023-04-24T01:42:21;99961.31;;;13.23;74.13
19096;BME280;9680;52.520;13.332;2023-04-24T01:44:48;99954.41;;;13.22;74.02
19096;BME280;9680;52.520;13.332;2023-04-24T01:47:16;99956.41;;;13.19;73.88
19096;BME280;9680;52.520;13.332;2023-04-24T01:49:43;99960.88;;;13.17;74.42
19096;BME280;9680;52.520;13.332;2023-04-24T01:52:12;99948.00;;;13.14;74.57
19096;BME280;9680;52.520;13.332;2023-04-24T01:54:38;99950.06;;;13.08;74.76
19096;BME280;9680;52.520;13.332;2023-04-24T01:57:07;99942.47;;;13.04;74.92
19096;BME280;9680;52.520;13.332;2023-04-24T01:59:34;99934.81;;;13.01;75.03
19096;BME280;9680;52.520;13.332;2023-04-24T02:02:02;99941.19;;;12.96;75.33
19096;BME280;9680;52.520;13.332;2023-04-24T02:04:28;99946.66;;;12.92;75.75
19096;BME280;9680;52.520;13.332;2023-04-24T02:06:56;99942.47;;;12.89;75.54
19096;BME280;9680;52.520;13.332;2023-04-24T02:09:24;99945.91;;;12.90;75.85
19096;BME280;9680;52.520;13.332;2023-04-24T02:11:51;99937.44;;;12.86;75.92
19096;BME280;9680;52.520;13.332;2023-04-24T02:14:19;99935.94;;;12.82;76.17
19096;BME280;9680;52.520;13.332;2023-04-24T02:16:45;99936.03;;;12.80;76.16
19096;BME280;9680;52.520;13.332;2023-04-24T02:19:12;99929.13;;;12.79;76.32
19096;BME280;9680;52.520;13.332;2023-04-24T02:21:39;99919.59;;;12.78;76.26
19096;BME280;9680;52.520;13.332;2023-04-24T02:24:07;99912.69;;;12.77;76.38
19096;BME280;9680;52.520;13.332;2023-04-24T02:26:34;99925.75;;;12.77;76.68
19096;BME280;9680;52.520;13.332;2023-04-24T02:29:01;99915.31;;;12.77;76.54
19096;BME280;9680;52.520;13.332;2023-04-24T02:31:29;99925.00;;;12.75;77.00
19096;BME280;9680;52.520;13.332;2023-04-24T02:33:56;99931.09;;;12.76;76.93
19096;BME280;9680;52.520;13.332;2023-04-24T02:36:23;99922.41;;;12.75;77.00
19096;BME280;9680;52.520;13.332;2023-04-24T02:38:49;99920.53;;;12.77;77.39
19096;BME280;9680;52.520;13.332;2023-04-24T02:41:16;99931.72;;;12.79;77.02
19096;BME280;9680;52.520;13.332;2023-04-24T02:43:43;99924.00;;;12.78;77.35
19096;BME280;9680;52.520;13.332;2023-04-24T02:46:10;99931.72;;;12.79;77.13
19096;BME280;9680;52.520;13.332;2023-04-24T02:48:38;99925.38;;;12.84;77.37
19096;BME280;9680;52.520;13.332;2023-04-24T02:51:05;99915.69;;;12.86;77.13
19096;BME280;9680;52.520;13.332;2023-04-24T02:53:33;99926.13;;;12.86;77.11
19096;BME280;9680;52.520;13.332;2023-04-24T02:55:59;99923.63;;;12.84;77.47
19096;BME280;9680;52.520;13.332;2023-04-24T02:58:26;99917.53;;;12.84;77.19
19096;BME280;9680;52.520;13.332;2023-04-24T03:00:53;99910.44;;;12.86;77.40
19096;BME280;9680;52.520;13.332;2023-04-24T03:03:20;99912.97;;;12.87;77.29
19096;BME280;9680;52.520;13.332;2023-04-24T03:05:49;99911.13;;;12.89;76.90
19096;BME280;9680;52.520;13.332;2023-04-24T03:08:16;99917.16;;;12.90;76.83
19096;BME280;9680;52.520;13.332;2023-04-24T03:10:43;99922.50;;;12.88;77.07
19096;BME280;9680;52.520;13.332;2023-04-24T03:13:09;99922.59;;;12.87;77.09
19096;BME280;9680;52.520;13.332;2023-04-24T03:15:37;99929.50;;;12.88;77.06
19096;BME280;9680;52.520;13.332;2023-04-24T03:18:04;99939.59;;;12.94;77.36
19096;BME280;9680;52.520;13.332;2023-04-24T03:20:31;99928.03;;;12.98;77.27
19096;BME280;9680;52.520;13.332;2023-04-24T03:23:00;99937.25;;;13.04;77.08
19096;BME280;9680;52.520;13.332;2023-04-24T03:25:26;99929.22;;;13.07;76.86
19096;BME280;9680;52.520;13.332;2023-04-24T03:27:54;99925.47;;;13.11;76.82
19096;BME280;9680;52.520;13.332;2023-04-24T03:30:37;99934.91;;;13.14;76.54
19096;BME280;9680;52.520;13.332;2023-04-24T03:33:05;99926.13;;;13.15;76.75
19096;BME280;9680;52.520;13.332;2023-04-24T03:35:36;99926.13;;;13.15;76.76
19096;BME280;9680;52.520;13.332;2023-04-24T03:38:08;99922.66;;;13.14;76.64
19096;BME280;9680;52.520;13.332;2023-04-24T03:40:41;99930.44;;;13.16;76.57
19096;BME280;9680;52.520;13.332;2023-04-24T03:43:46;99932.19;;;13.15;76.42
19096;BME280;9680;52.520;13.332;2023-04-24T03:46:14;99931.19;;;13.18;76.87
19096;BME280;9680;52.520;13.332;2023-04-24T03:48:47;99929.19;;;13.21;76.79
19096;BME280;9680;52.520;13.332;2023-04-24T03:51:17;99940.31;;;13.25;76.62
19096;BME280;9680;52.520;13.332;2023-04-24T03:53:49;99932.47;;;13.25;76.56
19096;BME280;9680;52.520;13.332;2023-04-24T03:56:19;99927.16;;;13.27;76.19
19096;BME280;9680;52.520;13.332;2023-04-24T03:58:46;99926.13;;;13.29;76.35
19096;BME280;9680;52.520;13.332;2023-04-24T04:01:13;99922.75;;;13.27;76.41
19096;BME280;9680;52.520;13.332;2023-04-24T04:03:58;99931.28;;;13.31;76.38
19096;BME280;9680;52.520;13.332;2023-04-24T04:06:26;99924.06;;;13.34;76.18
19096;BME280;9680;52.520;13.332;2023-04-24T04:08:57;99923.13;;;13.35;75.85
19096;BME280;9680;52.520;13.332;2023-04-24T04:11:24;99917.88;;;13.35;76.16
19096;BME280;9680;52.520;13.332;2023-04-24T04:13:50;99922.09;;;13.38;75.90
19096;BME280;9680;52.520;13.332;2023-04-24T04:16:20;99912.38;;;13.40;75.79
19096;BME280;9680;52.520;13.332;2023-04-24T04:18:49;99920.13;;;13.42;75.54
19096;BME280;9680;52.520;13.332;2023-04-24T04:21:16;99914.13;;;13.39;75.51
19096;BME280;9680;52.520;13.332;2023-04-24T04:23:43;99914.13;;;13.39;75.69
19096;BME280;9680;52.520;13.332;2023-04-24T04:26:19;99917.59;;;13.40;75.40
19096;BME280;9680;52.520;13.332;2023-04-24T04:29:08;99919.75;;;13.33;75.55
19096;BME280;9680;52.520;13.332;2023-04-24T04:31:39;99924.56;;;13.27;75.45
19096;BME280;9680;52.520;13.332;2023-04-24T04:34:10;99922.09;;;13.23;75.95
19096;BME280;9680;52.520;13.332;2023-04-24T04:36:38;99922.00;;;13.25;75.86
19096;BME280;9680;52.520;13.332;2023-04-24T04:39:26;99918.47;;;13.26;76.24
19096;BME280;9680;52.520;13.332;2023-04-24T04:42:21;99931.16;;;13.32;76.19
19096;BME280;9680;52.520;13.332;2023-04-24T04:44:49;99926.47;;;13.37;75.85
19096;BME280;9680;52.520;13.332;2023-04-24T04:47:21;99936.94;;;13.37;75.58
19096;BME280;9680;52.520;13.332;2023-04-24T04:49:50;99938.00;;;13.35;75.51
19096;BME280;9680;52.520;13.332;2023-04-24T04:52:23;99940.50;;;13.36;75.45
19096;BME280;9680;52.520;13.332;2023-04-24T04:54:59;99944.59;;;13.40;75.66
19096;BME280;9680;52.520;13.332;2023-04-24T04:57:42;99937.53;;;13.43;75.43
19096;BME280;9680;52.520;13.332;2023-04-24T05:00:10;99942.38;;;13.49;75.55
19096;BME280;9680;52.520;13.332;2023-04-24T05:02:45;99948.88;;;13.56;75.13
19096;BME280;9680;52.520;13.332;2023-04-24T05:05:12;99949.47;;;13.61;75.21
19096;BME280;9680;52.520;13.332;2023-04-24T05:07:38;99947.47;;;13.65;74.85
19096;BME280;9680;52.520;13.332;2023-04-24T05:10:06;99945.53;;;13.68;74.90
19096;BME280;9680;52.520;13.332;2023-04-24T05:12:33;99946.25;;;13.71;74.61
19096;BME280;9680;52.520;13.332;2023-04-24T05:15:04;99950.44;;;13.73;74.45
19096;BME280;9680;52.520;13.332;2023-04-24T05:17:30;99953.91;;;13.74;74.79
19096;BME280;9680;52.520;13.332;2023-04-24T05:19:58;99952.88;;;13.76;74.67
19096;BME280;9680;52.520;13.332;2023-04-24T05:22:26;99944.94;;;13.78;74.49
19096;BME280;9680;52.520;13.332;2023-04-24T05:24:53;99951.66;;;13.82;74.09
19096;BME280;9680;52.520;13.332;2023-04-24T05:27:46;99954.81;;;13.87;74.40
19096;BME280;9680;52.520;13.332;2023-04-24T05:30:16;99959.00;;;13.90;73.85
19096;BME280;9680;52.520;13.332;2023-04-24T05:32:43;99954.53;;;13.92;74.02
19096;BME280;9680;52.520;13.332;2023-04-24T05:35:10;99958.91;;;13.91;73.46
19096;BME280;9680;52.520;13.332;2023-04-24T05:37:36;99956.09;;;13.94;73.67
19096;BME280;9680;52.520;13.332;2023-04-24T05:40:04;99957.03;;;13.93;73.36
19096;BME280;9680;52.520;13.332;2023-04-24T05:42:31;99956.19;;;13.93;73.36
19096;BME280;9680;52.520;13.332;2023-04-24T05:44:58;99962.47;;;13.90;73.11
19096;BME280;9680;52.520;13.332;2023-04-24T05:47:27;99958.81;;;13.93;73.39
19096;BME280;9680;52.520;13.332;2023-04-24T05:49:54;99964.19;;;14.04;73.06
19096;BME280;9680;52.520;13.332;2023-04-24T05:52:21;99955.78;;;14.26;72.94
19096;BME280;9680;52.520;13.332;2023-04-24T05:54:49;99960.00;;;14.42;72.35
19096;BME280;9680;52.520;13.332;2023-04-24T05:57:20;99962.97;;;14.76;71.27
19096;BME280;9680;52.520;13.332;2023-04-24T05:59:52;99960.06;;;14.81;70.14
19096;BME280;9680;52.520;13.332;2023-04-24T06:02:20;99960.22;;;14.65;69.92
19096;BME280;9680;52.520;13.332;2023-04-24T06:04:49;99964.41;;;14.54;70.06
19096;BME280;9680;52.520;13.332;2023-04-24T06:07:17;99966.25;;;14.39;70.47
19096;BME280;9680;52.520;13.332;2023-04-24T06:09:44;99966.19;;;14.41;70.79
19096;BME280;9680;52.520;13.332;2023-04-24T06:12:11;99970.47;;;14.42;70.43
19096;BME280;9680;52.520;13.332;2023-04-24T06:14:49;99972.97;;;14.44;70.70
19096;BME280;9680;52.520;13.332;2023-04-24T06:17:21;99977.06;;;14.48;70.43
19096;BME280;9680;52.520;13.332;2023-04-24T06:20:04;99976.56;;;14.55;70.12
19096;BME280;9680;52.520;13.332;2023-04-24T06:22:32;99977.63;;;14.66;69.69
19096;BME280;9680;52.520;13.332;2023-04-24T06:24:59;99981.66;;;14.84;69.16
19096;BME280;9680;52.520;13.332;2023-04-24T06:27:26;99973.28;;;15.05;68.71
19096;BME280;9680;52.520;13.332;2023-04-24T06:29:53;99975.56;;;15.36;68.21
19096;BME280;9680;52.520;13.332;2023-04-24T06:32:21;99982.31;;;15.64;67.18
19096;BME280;9680;52.520;13.332;2023-04-24T06:34:48;99971.06;;;15.86;66.05
19096;BME280;9680;52.520;13.332;2023-04-24T06:37:18;99977.78;;;16.04;64.70
19096;BME280;9680;52.520;13.332;2023-04-24T06:39:45;99974.13;;;16.18;64.55
19096;BME280;9680;52.520;13.332;2023-04-24T06:42:12;99975.25;;;16.26;63.46
19096;BME280;9680;52.520;13.332;2023-04-24T06:44:38;99975.03;;;16.29;62.86
19096;BME280;9680;52.520;13.332;2023-04-24T06:47:07;99979.19;;;16.32;62.76
19096;BME280;9680;52.520;13.332;2023-04-24T06:49:34;99986.25;;;16.32;62.30
19096;BME280;9680;52.520;13.332;2023-04-24T06:52:01;99972.66;;;16.38;62.68
19096;BME280;9680;52.520;13.332;2023-04-24T06:54:30;99964.34;;;16.55;62.05
19096;BME280;9680;52.520;13.332;2023-04-24T06:56:57;99967.34;;;16.62;61.43
19096;BME280;9680;52.520;13.332;2023-04-24T06:59:24;99964.34;;;16.67;60.66
19096;BME280;9680;52.520;13.332;2023-04-24T07:01:51;99968.75;;;16.55;60.41
19096;BME280;9680;52.520;13.332;2023-04-24T07:04:18;99968.38;;;16.48;60.61
19096;BME280;9680;52.520;13.332;2023-04-24T07:06:45;99964.56;;;16.52;60.38
19096;BME280;9680;52.520;13.332;2023-04-24T07:09:12;99962.16;;;16.38;59.61
19096;BME280;9680;52.520;13.332;2023-04-24T07:11:42;99966.84;;;16.21;59.57
19096;BME280;9680;52.520;13.332;2023-04-24T07:14:10;99965.56;;;16.27;60.06
19096;BME280;9680;52.520;13.332;2023-04-24T07:16:36;99969.34;;;16.47;59.78
19096;BME280;9680;52.520;13.332;2023-04-24T07:19:03;99962.84;;;16.76;59.62
19096;BME280;9680;52.520;13.332;2023-04-24T07:21:30;99964.94;;;17.06;58.46
19096;BME280;9680;52.520;13.332;2023-04-24T07:23:57;99970.53;;;17.36;57.68
19096;BME280;9680;52.520;13.332;2023-04-24T07:26:25;99973.50;;;17.42;55.76
19096;BME280;9680;52.520;13.332;2023-04-24T07:28:53;99958.09;;;17.38;55.83
19096;BME280;9680;52.520;13.332;2023-04-24T07:31:20;99964.16;;;17.50;55.70
19096;BME280;9680;52.520;13.332;2023-04-24T07:33:47;99962.88;;;17.44;55.39
19096;BME280;9680;52.520;13.332;2023-04-24T07:36:14;99973.88;;;17.38;54.91
19096;BME280;9680;52.520;13.332;2023-04-24T07:38:44;99974.84;;;17.48;55.10
19096;BME280;9680;52.520;13.332;2023-04-24T07:41:11;99964.06;;;17.51;54.09
19096;BME280;9680;52.520;13.332;2023-04-24T07:43:38;99962.47;;;17.49;54.69
19096;BME280;9680;52.520;13.332;2023-04-24T07:46:06;99957.59;;;17.44;54.29
19096;BME280;9680;52.520;13.332;2023-04-24T07:48:33;99953.88;;;17.46;54.32
19096;BME280;9680;52.520;13.332;2023-04-24T07:51:00;99958.03;;;17.60;54.24
19096;BME280;9680;52.520;13.332;2023-04-24T07:53:27;99959.66;;;17.84;53.96
19096;BME280;9680;52.520;13.332;2023-04-24T07:55:54;99958.78;;;17.95;52.98
19096;BME280;9680;52.520;13.332;2023-04-24T07:58:21;99963.09;;;18.08;51.44
19096;BME280;9680;52.520;13.332;2023-04-24T08:00:48;99964.13;;;18.16;51.47
19096;BME280;9680;52.520;13.332;2023-04-24T08:03:16;99960.63;;;18.27;51.01
19096;BME280;9680;52.520;13.332;2023-04-24T08:05:44;99963.94;;;18.51;50.57
19096;BME280;9680;52.520;13.332;2023-04-24T08:08:11;99963.44;;;18.78;50.17
19096;BME280;9680;52.520;13.332;2023-04-24T08:10:38;99962.84;;;18.96;48.98
19096;BME280;9680;52.520;13.332;2023-04-24T08:13:05;99948.47;;;19.10;48.11
19096;BME280;9680;52.520;13.332;2023-04-24T08:15:31;99956.66;;;19.06;47.57
19096;BME280;9680;52.520;13.332;2023-04-24T08:17:58;99956.66;;;19.06;47.34
19096;BME280;9680;52.520;13.332;2023-04-24T08:20:26;99963.75;;;19.06;46.98
19096;BME280;9680;52.520;13.332;2023-04-24T08:22:53;99968.50;;;19.12;47.14
19096;BME280;9680;52.520;13.332;2023-04-24T08:25:20;99958.91;;;19.21;46.79
19096;BME280;9680;52.520;13.332;2023-04-24T08:27:48;99961.81;;;19.18;46.88
19096;BME280;9680;52.520;13.332;2023-04-24T08:30:15;99963.16;;;19.02;45.48
19096;BME280;9680;52.520;13.332;2023-04-24T08:32:42;99954.72;;;18.87;46.53
19096;BME280;9680;52.520;13.332;2023-04-24T08:35:08;99950.66;;;19.04;46.67
19096;BME280;9680;52.520;13.332;2023-04-24T08:37:37;99945.75;;;19.31;46.24
19096;BME280;9680;52.520;13.332;2023-04-24T08:40:08;99947.75;;;19.48;45.78
19096;BME280;9680;52.520;13.332;2023-04-24T08:42:38;99951.94;;;19.51;44.38
19096;BME280;9680;52.520;13.332;2023-04-24T08:45:06;99951.91;;;19.41;44.96
19096;BME280;9680;52.520;13.332;2023-04-24T08:47:35;99953.06;;;19.58;45.19
19096;BME280;9680;52.520;13.332;2023-04-24T08:50:02;99955.50;;;19.91;44.86
19096;BME280;9680;52.520;13.332;2023-04-24T08:52:32;99953.69;;;20.21;44.16
19096;BME280;9680;52.520;13.332;2023-04-24T08:55:01;99945.28;;;20.65;43.82
19096;BME280;9680;52.520;13.332;2023-04-24T08:57:28;99944.66;;;20.91;43.55
19096;BME280;9680;52.520;13.332;2023-04-24T08:59:58;99950.34;;;21.06;42.84
19096;BME280;9680;52.520;13.332;2023-04-24T09:02:25;99952.47;;;20.92;42.21
19096;BME280;9680;52.520;13.332;2023-04-24T09:04:53;99948.03;;;20.73;41.57
19096;BME280;9680;52.520;13.332;2023-04-24T09:07:21;99948.09;;;20.44;42.07
19096;BME280;9680;52.520;13.332;2023-04-24T09:09:50;99947.28;;;20.23;42.74
19096;BME280;9680;52.520;13.332;2023-04-24T09:12:18;99957.88;;;20.23;43.10
19096;BME280;9680;52.520;13.332;2023-04-24T09:14:45;99954.81;;;20.28;42.80
19096;BME280;9680;52.520;13.332;2023-04-24T09:17:12;99950.47;;;20.37;42.90
19096;BME280;9680;52.520;13.332;2023-04-24T09:19:40;99948.41;;;20.41;43.23
19096;BME280;9680;52.520;13.332;2023-04-24T09:22:07;99949.78;;;20.55;42.72
19096;BME280;9680;52.520;13.332;2023-04-24T09:24:34;99957.59;;;20.36;43.35
19096;BME280;9680;52.520;13.332;2023-04-24T09:27:02;99945.59;;;20.52;43.40
19096;BME280;9680;52.520;13.332;2023-04-24T09:29:30;99953.06;;;20.66;43.69
19096;BME280;9680;52.520;13.332;2023-04-24T09:31:58;99962.09;;;20.84;43.83
19096;BME280;9680;52.520;13.332;2023-04-24T09:34:26;99959.94;;;21.07;43.75
19096;BME280;9680;52.520;13.332;2023-04-24T09:36:54;99954.47;;;21.08;43.44
19096;BME280;9680;52.520;13.332;2023-04-24T09:39:21;99963.38;;;20.79;43.56
19096;BME280;9680;52.520;13.332;2023-04-24T09:41:49;99960.06;;;20.48;43.99
19096;BME280;9680;52.520;13.332;2023-04-24T09:44:18;99959.94;;;20.30;44.56
19096;BME280;9680;52.520;13.332;2023-04-24T09:46:50;99967.34;;;20.26;45.09
19096;BME280;9680;52.520;13.332;2023-04-24T09:49:22;99958.28;;;20.19;45.25
19096;BME280;9680;52.520;13.332;2023-04-24T09:51:49;99963.03;;;19.96;45.67
19096;BME280;9680;52.520;13.332;2023-04-24T09:54:18;99970.81;;;19.97;46.18
19096;BME280;9680;52.520;13.332;2023-04-24T09:56:47;99960.38;;;19.96;45.57
19096;BME280;9680;52.520;13.332;2023-04-24T09:59:15;99960.38;;;20.05;45.34
19096;BME280;9680;52.520;13.332;2023-04-24T10:01:42;99958.97;;;20.21;45.48
19096;BME280;9680;52.520;13.332;2023-04-24T10:04:19;99963.16;;;20.33;45.21
19096;BME280;9680;52.520;13.332;2023-04-24T10:06:47;99949.66;;;20.36;44.98
19096;BME280;9680;52.520;13.332;2023-04-24T10:09:15;99944.72;;;20.71;44.81
19096;BME280;9680;52.520;13.332;2023-04-24T10:11:43;99953.56;;;21.00;44.43
19096;BME280;9680;52.520;13.332;2023-04-24T10:14:12;99941.25;;;21.08;43.98
19096;BME280;9680;52.520;13.332;2023-04-24T10:16:40;99950.06;;;20.99;43.83
19096;BME280;9680;52.520;13.332;2023-04-24T10:19:07;99951.78;;;20.90;44.06
19096;BME280;9680;52.520;13.332;2023-04-24T10:21:35;99953.47;;;20.91;44.02
19096;BME280;9680;52.520;13.332;2023-04-24T10:24:04;99947.59;;;20.98;43.92
19096;BME280;9680;52.520;13.332;2023-04-24T10:26:33;99936.06;;;20.79;44.01
19096;BME280;9680;52.520;13.332;2023-04-24T10:29:00;99949.22;;;20.51;44.01
19096;BME280;9680;52.520;13.332;2023-04-24T10:31:31;99949.78;;;20.45;44.24
19096;BME280;9680;52.520;13.332;2023-04-24T10:33:59;99947.56;;;20.20;44.88
19096;BME280;9680;52.520;13.332;2023-04-24T10:36:28;99949.19;;;19.82;44.95
19096;BME280;9680;52.520;13.332;2023-04-24T10:39:02;99957.19;;;19.41;45.69
19096;BME280;9680;52.520;13.332;2023-04-24T10:41:30;99957.00;;;19.23;46.43
19096;BME280;9680;52.520;13.332;2023-04-24T10:44:07;99961.75;;;18.98;46.57
19096;BME280;9680;52.520;13.332;2023-04-24T10:46:35;99953.75;;;18.88;46.89
19096;BME280;9680;52.520;13.332;2023-04-24T10:49:04;99955.94;;;18.83;47.32
19096;BME280;9680;52.520;13.332;2023-04-24T10:51:46;99955.84;;;18.85;47.68
19096;BME280;9680;52.520;13.332;2023-04-24T10:54:25;99956.72;;;18.95;47.69
19096;BME280;9680;52.520;13.332;2023-04-24T10:56:53;99944.78;;;19.22;47.59
19096;BME280;9680;52.520;13.332;2023-04-24T10:59:26;99957.53;;;19.68;46.67
19096;BME280;9680;52.520;13.332;2023-04-24T11:01:54;99957.31;;;20.30;46.10
19096;BME280;9680;52.520;13.332;2023-04-24T11:04:32;99946.31;;;21.02;44.79
19096;BME280;9680;52.520;13.332;2023-04-24T11:07:00;99944.53;;;21.20;44.15
19096;BME280;9680;52.520;13.332;2023-04-24T11:09:30;99943.53;;;21.31;43.73
19096;BME280;9680;52.520;13.332;2023-04-24T11:12:04;99937.19;;;21.60;42.75
19096;BME280;9680;52.520;13.332;2023-04-24T11:15:00;99943.75;;;21.84;42.48
19096;BME280;9680;52.520;13.332;2023-04-24T11:17:31;99940.66;;;22.07;41.86
19096;BME280;9680;52.520;13.332;2023-04-24T11:20:02;99931.72;;;22.08;41.67
19096;BME280;9680;52.520;13.332;2023-04-24T11:22:33;99928.75;;;22.11;41.78
19096;BME280;9680;52.520;13.332;2023-04-24T11:25:02;99932.47;;;22.00;41.60
19096;BME280;9680;52.520;13.332;2023-04-24T11:27:31;99925.91;;;21.58;41.72
19096;BME280;9680;52.520;13.332;2023-04-24T11:30:00;99931.69;;;20.98;41.90
19096;BME280;9680;52.520;13.332;2023-04-24T11:32:30;99947.56;;;20.30;43.37
19096;BME280;9680;52.520;13.332;2023-04-24T11:34:59;99946.13;;;19.67;45.78
19096;BME280;9680;52.520;13.332;2023-04-24T11:37:27;99952.38;;;19.15;48.62
19096;BME280;9680;52.520;13.332;2023-04-24T11:39:57;99951.69;;;18.61;50.30
19096;BME280;9680;52.520;13.332;2023-04-24T11:42:26;99964.56;;;17.89;51.60
19096;BME280;9680;52.520;13.332;2023-04-24T11:44:53;99966.41;;;17.66;53.47
19096;BME280;9680;52.520;13.332;2023-04-24T11:47:27;99962.00;;;17.55;55.22
19096;BME280;9680;52.520;13.332;2023-04-24T11:49:54;99956.13;;;17.63;55.66
19096;BME280;9680;52.520;13.332;2023-04-24T11:52:21;99965.97;;;17.93;55.53
19096;BME280;9680;52.520;13.332;2023-04-24T11:54:49;99954.50;;;18.48;55.24
19096;BME280;9680;52.520;13.332;2023-04-24T11:57:16;99952.38;;;19.15;53.46
19096;BME280;9680;52.520;13.332;2023-04-24T11:59:46;99952.50;;;19.64;51.80
19096;BME280;9680;52.520;13.332;2023-04-24T12:02:20;99947.84;;;20.07;51.51
19096;BME280;9680;52.520;13.332;2023-04-24T12:04:48;99937.94;;;20.39;50.82
19096;BME280;9680;52.520;13.332;2023-04-24T12:07:15;99936.66;;;20.53;50.10
19096;BME280;9680;52.520;13.332;2023-04-24T12:09:43;99923.91;;;20.39;49.58
19096;BME280;9680;52.520;13.332;2023-04-24T12:12:11;99932.34;;;20.52;49.35
19096;BME280;9680;52.520;13.332;2023-04-24T12:14:55;99924.53;;;20.70;49.06
19096;BME280;9680;52.520;13.332;2023-04-24T12:17:27;99934.06;;;20.91;48.12
19096;BME280;9680;52.520;13.332;2023-04-24T12:19:59;99924.97;;;21.31;47.15
19096;BME280;9680;52.520;13.332;2023-04-24T12:22:27;99916.72;;;21.80;46.63
19096;BME280;9680;52.520;13.332;2023-04-24T12:25:01;99918.78;;;21.87;44.91
19096;BME280;9680;52.520;13.332;2023-04-24T12:27:32;99909.59;;;21.99;44.86
19096;BME280;9680;52.520;13.332;2023-04-24T12:30:02;99905.41;;;22.15;44.21
19096;BME280;9680;52.520;13.332;2023-04-24T12:32:30;99902.34;;;22.28;43.20
19096;BME280;9680;52.520;13.332;2023-04-24T12:34:58;99902.72;;;22.33;41.80
19096;BME280;9680;52.520;13.332;2023-04-24T12:37:25;99905.97;;;22.00;39.54
19096;BME280;9680;52.520;13.332;2023-04-24T12:40:00;99902.94;;;21.95;39.80
19096;BME280;9680;52.520;13.332;2023-04-24T12:42:28;99887.50;;;22.17;38.80
19096;BME280;9680;52.520;13.332;2023-04-24T12:44:59;99899.78;;;21.91;37.37
19096;BME280;9680;52.520;13.332;2023-04-24T12:47:29;99910.47;;;21.53;37.12
19096;BME280;9680;52.520;13.332;2023-04-24T12:49:56;99912.03;;;21.28;37.00
19096;BME280;9680;52.520;13.332;2023-04-24T12:52:22;99919.78;;;21.12;36.41
19096;BME280;9680;52.520;13.332;2023-04-24T12:54:52;99916.78;;;20.97;36.49
19096;BME280;9680;52.520;13.332;2023-04-24T12:57:19;99909.31;;;20.82;36.54
19096;BME280;9680;52.520;13.332;2023-04-24T12:59:46;99910.16;;;20.73;36.37
19096;BME280;9680;52.520;13.332;2023-04-24T13:02:13;99913.00;;;20.99;37.26
19096;BME280;9680;52.520;13.332;2023-04-24T13:04:44;99903.00;;;20.93;38.38
19096;BME280;9680;52.520;13.332;2023-04-24T13:07:12;99910.56;;;20.88;38.60
19096;BME280;9680;52.520;13.332;2023-04-24T13:09:39;99910.28;;;20.81;39.10